Time;durP1;ratioP1;P1;durP2;ratioP2;P2;SDS_P1;SDS_P2;PMS_P1;PMS_P2;Temp;Humidity;BMP_temperature;BMP_pressure;BME280_temperature;BME280_humidity;BME280_pressure;Samples;Min_cycle;Max_cycle;Signal;HPM_P1;HPM_P2
2023/08/05 00:01:10;;;;;;;;;;;20.80;99.90;;;;;;6019436;23;19939;-75
2023/08/05 00:03:36;;;;;;;;;;;20.70;99.90;;;;;;6020815;23;19999;-72
2023/08/05 00:06:01;;;;;;;;;;;20.70;99.90;;;;;;6019705;23;19969;-72
2023/08/05 00:08:27;;;;;;;;;;;20.70;99.90;;;;;;5988953;23;20357;-67
2023/08/05 00:10:53;;;;;;;;;;;20.70;99.90;;;;;;6020736;23;19929;-72
2023/08/05 00:13:19;;;;;;;;;;;20.80;99.90;;;;;;6015156;23;19973;-73
2023/08/05 00:15:44;;;;;;;;;;;20.80;99.90;;;;;;6018712;23;19933;-73
2023/08/05 00:18:10;;;;;;;;;;;20.80;99.90;;;;;;6020269;23;19959;-72
2023/08/05 00:20:35;;;;;;;;;;;20.70;99.90;;;;;;6035231;23;19960;-73
2023/08/05 00:23:01;;;;;;;;;;;20.70;99.90;;;;;;6048167;23;19931;-73
2023/08/05 00:25:26;;;;;;;;;;;20.70;99.90;;;;;;6048155;23;20035;-71
2023/08/05 00:27:52;;;;;;;;;;;20.70;99.90;;;;;;6045368;23;19930;-71
2023/08/05 00:30:17;;;;;;;;;;;20.70;99.90;;;;;;6046688;23;19932;-71
2023/08/05 00:32:43;;;;;;;;;;;20.80;99.90;;;;;;6046187;23;20011;-71
2023/08/05 00:35:08;;;;;;;;;;;20.70;99.90;;;;;;6047831;23;19949;-71
2023/08/05 00:37:35;;;;;;;;;;;20.80;99.90;;;;;;6047410;23;19964;-71
2023/08/05 00:41:19;;;;;;;;;;;20.80;99.90;;;;;;4756669;27;8484143;-71
2023/08/05 00:43:44;;;;;;;;;;;20.80;99.90;;;;;;5072219;27;20041;-70
2023/08/05 00:46:11;;;;;;;;;;;20.80;99.90;;;;;;5094500;27;20046;-70
2023/08/05 00:48:37;;;;;;;;;;;20.80;99.90;;;;;;5099084;27;19990;-69
2023/08/05 00:51:03;;;;;;;;;;;20.80;99.90;;;;;;5104057;28;20044;-69
2023/08/05 00:53:31;;;;;;;;;;;20.80;99.90;;;;;;5102779;27;19951;-69
2023/08/05 00:55:56;;;;;;;;;;;20.60;99.90;;;;;;5101539;28;20591;-69
2023/08/05 00:58:22;;;;;;;;;;;20.50;99.90;;;;;;5105717;27;19939;-70
2023/08/05 01:00:48;;;;;;;;;;;20.50;99.90;;;;;;5099454;27;19958;-70
2023/08/05 01:03:13;;;;;;;;;;;20.40;99.90;;;;;;5100538;27;19944;-70
2023/08/05 01:05:39;;;;;;;;;;;20.50;99.90;;;;;;5103922;28;19968;-71
2023/08/05 01:08:06;;;;;;;;;;;20.40;99.90;;;;;;5102623;28;19977;-71
2023/08/05 01:10:32;;;;;;;;;;;20.40;99.90;;;;;;5102835;28;19992;-72
2023/08/05 01:12:57;;;;;;;;;;;20.30;99.90;;;;;;5102225;27;19934;-72
2023/08/05 01:15:23;;;;;;;;;;;20.30;99.90;;;;;;5105604;28;20558;-72
2023/08/05 01:17:49;;;;;;;;;;;20.30;99.90;;;;;;5103748;27;20755;-71
2023/08/05 01:20:16;;;;;;;;;;;20.30;99.90;;;;;;5103100;28;19997;-71
2023/08/05 01:22:42;;;;;;;;;;;20.30;99.90;;;;;;5104049;27;19938;-71
2023/08/05 01:25:23;;;;;;;;;;;20.20;99.90;;;;;;5100953;27;20452;-70
2023/08/05 01:27:49;;;;;;;;;;;20.20;99.90;;;;;;5103872;28;19978;-71
2023/08/05 01:30:15;;;;;;;;;;;20.10;99.90;;;;;;5099395;28;20430;-71
2023/08/05 01:32:41;;;;;;;;;;;20.10;99.90;;;;;;5102502;28;19954;-71
2023/08/05 01:35:09;;;;;;;;;;;20.10;99.90;;;;;;5102241;27;20025;-72
2023/08/05 01:37:35;;;;;;;;;;;20.10;99.90;;;;;;5115355;27;20476;-72
2023/08/05 01:40:00;;;;;;;;;;;20.20;99.90;;;;;;5117542;27;19989;-72
2023/08/05 01:42:26;;;;;;;;;;;20.20;99.90;;;;;;5114826;27;19995;-71
2023/08/05 01:44:51;;;;;;;;;;;20.20;99.90;;;;;;5118751;27;19940;-72
2023/08/05 01:47:17;;;;;;;;;;;20.20;99.90;;;;;;5113852;27;19943;-72
2023/08/05 01:49:42;;;;;;;;;;;20.30;99.90;;;;;;5120888;27;19937;-72
2023/08/05 01:52:08;;;;;;;;;;;20.30;99.90;;;;;;5091157;27;19945;-72
2023/08/05 01:54:33;;;;;;;;;;;20.40;99.90;;;;;;5106053;27;20376;-71
2023/08/05 01:56:58;;;;;;;;;;;20.40;99.90;;;;;;5103302;27;19944;-71
2023/08/05 01:59:24;;;;;;;;;;;20.30;99.90;;;;;;5110805;27;19967;-70
2023/08/05 02:01:49;;;;;;;;;;;20.30;99.90;;;;;;5103286;27;19940;-71
2023/08/05 02:04:15;;;;;;;;;;;20.30;99.90;;;;;;5105324;27;19932;-71
2023/08/05 02:06:41;;;;;;;;;;;20.20;99.90;;;;;;5103139;27;20038;-71
2023/08/05 02:09:06;;;;;;;;;;;20.20;99.90;;;;;;5109539;27;20278;-70
2023/08/05 02:11:32;;;;;;;;;;;20.30;99.90;;;;;;5106759;27;19935;-71
2023/08/05 02:13:57;;;;;;;;;;;20.30;99.90;;;;;;5107314;27;19936;-71
2023/08/05 02:16:23;;;;;;;;;;;20.40;99.90;;;;;;5105690;27;20820;-70
2023/08/05 02:18:51;;;;;;;;;;;20.40;99.90;;;;;;5107052;27;19953;-71
2023/08/05 02:21:17;;;;;;;;;;;20.40;99.90;;;;;;5104122;27;19944;-72
2023/08/05 02:23:42;;;;;;;;;;;20.40;99.90;;;;;;5080672;27;20187;-71
2023/08/05 02:26:08;;;;;;;;;;;20.40;99.90;;;;;;5106721;27;20311;-71
2023/08/05 02:28:33;;;;;;;;;;;20.40;99.90;;;;;;5109414;27;19993;-71
2023/08/05 02:30:58;;;;;;;;;;;20.30;99.90;;;;;;5107712;27;19944;-70
2023/08/05 02:33:24;;;;;;;;;;;20.40;99.90;;;;;;5104656;27;20528;-70
2023/08/05 02:35:55;;;;;;;;;;;20.40;99.90;;;;;;5090565;27;20045;-71
2023/08/05 02:38:21;;;;;;;;;;;20.40;99.90;;;;;;5102987;27;20402;-71
2023/08/05 02:40:46;;;;;;;;;;;20.40;99.90;;;;;;5099282;27;20056;-71
2023/08/05 02:43:12;;;;;;;;;;;20.40;99.90;;;;;;5106346;27;19947;-71
2023/08/05 02:45:37;;;;;;;;;;;20.50;99.90;;;;;;5104929;27;20077;-72
2023/08/05 02:48:03;;;;;;;;;;;20.50;99.90;;;;;;5108260;27;20516;-71
2023/08/05 02:50:28;;;;;;;;;;;20.60;99.90;;;;;;5104092;27;19934;-71
2023/08/05 02:52:54;;;;;;;;;;;20.60;99.90;;;;;;5104908;27;19944;-71
2023/08/05 02:55:19;;;;;;;;;;;20.60;99.90;;;;;;5099414;27;20938;-71
2023/08/05 02:57:45;;;;;;;;;;;20.60;99.90;;;;;;5106078;27;19983;-71
2023/08/05 03:00:11;;;;;;;;;;;20.60;99.90;;;;;;5104403;27;19992;-71
2023/08/05 03:02:36;;;;;;;;;;;20.60;99.90;;;;;;5103170;27;19959;-70
2023/08/05 03:05:02;;;;;;;;;;;20.60;99.90;;;;;;5106079;27;19941;-70
2023/08/05 03:07:27;;;;;;;;;;;20.60;99.90;;;;;;5109376;27;19929;-70
2023/08/05 03:09:53;;;;;;;;;;;20.60;99.90;;;;;;5103552;27;19935;-70
2023/08/05 03:12:18;;;;;;;;;;;20.60;99.90;;;;;;5099442;27;19953;-70
2023/08/05 03:14:44;;;;;;;;;;;20.60;99.90;;;;;;5106091;27;19936;-70
2023/08/05 03:17:09;;;;;;;;;;;20.50;99.90;;;;;;5106136;27;19939;-70
2023/08/05 03:19:35;;;;;;;;;;;20.60;99.90;;;;;;5103089;27;20476;-70
2023/08/05 03:22:00;;;;;;;;;;;20.60;99.90;;;;;;5103603;27;19945;-70
2023/08/05 03:24:26;;;;;;;;;;;20.60;99.90;;;;;;5103519;27;19947;-70
2023/08/05 03:26:51;;;;;;;;;;;20.60;99.90;;;;;;5105128;27;19977;-70
2023/08/05 03:29:17;;;;;;;;;;;20.60;99.90;;;;;;5105130;27;19988;-70
2023/08/05 03:31:42;;;;;;;;;;;20.60;99.90;;;;;;5104050;27;20028;-70
2023/08/05 03:34:08;;;;;;;;;;;20.60;99.90;;;;;;5103155;27;20010;-69
2023/08/05 03:36:33;;;;;;;;;;;20.60;99.90;;;;;;5105726;27;20754;-70
2023/08/05 03:38:59;;;;;;;;;;;20.40;99.90;;;;;;5101805;27;19997;-70
2023/08/05 03:41:24;;;;;;;;;;;20.30;99.90;;;;;;5104172;27;20389;-69
2023/08/05 03:43:50;;;;;;;;;;;20.30;99.90;;;;;;5102980;27;20397;-70
2023/08/05 03:46:16;;;;;;;;;;;20.20;99.90;;;;;;5102280;27;20046;-69
2023/08/05 03:48:41;;;;;;;;;;;20.20;99.90;;;;;;5106817;27;20296;-70
2023/08/05 03:51:07;;;;;;;;;;;20.20;99.90;;;;;;5103683;27;21722;-69
2023/08/05 03:53:33;;;;;;;;;;;20.20;99.90;;;;;;5099923;27;20001;-69
2023/08/05 03:55:59;;;;;;;;;;;20.30;99.90;;;;;;5087200;27;19938;-69
2023/08/05 03:58:25;;;;;;;;;;;20.30;99.90;;;;;;5102459;27;19958;-70
2023/08/05 04:00:50;;;;;;;;;;;20.30;99.90;;;;;;5105645;27;20004;-69
2023/08/05 04:03:16;;;;;;;;;;;20.30;99.90;;;;;;5108489;27;20091;-70
2023/08/05 04:05:41;;;;;;;;;;;20.40;99.90;;;;;;5104614;27;20019;-70
2023/08/05 04:08:07;;;;;;;;;;;20.40;99.90;;;;;;5104713;27;19935;-69
2023/08/05 04:10:35;;;;;;;;;;;20.40;99.90;;;;;;5102815;27;19977;-71
2023/08/05 04:13:03;;;;;;;;;;;20.30;99.90;;;;;;5090898;27;19978;-71
2023/08/05 04:15:30;;;;;;;;;;;20.30;99.90;;;;;;5103703;27;20053;-71
2023/08/05 04:17:59;;;;;;;;;;;20.40;99.90;;;;;;5104238;27;19938;-71
2023/08/05 04:20:27;;;;;;;;;;;20.40;99.90;;;;;;5090395;27;19991;-70
2023/08/05 04:22:53;;;;;;;;;;;20.40;99.90;;;;;;5105568;27;20391;-71
2023/08/05 04:25:18;;;;;;;;;;;20.50;99.90;;;;;;5102589;27;19945;-71
2023/08/05 04:27:44;;;;;;;;;;;20.50;99.90;;;;;;5104123;27;19990;-71
2023/08/05 04:30:10;;;;;;;;;;;20.60;99.90;;;;;;5105179;27;19995;-69
2023/08/05 04:32:36;;;;;;;;;;;20.60;99.90;;;;;;5105241;27;20340;-70
2023/08/05 04:35:01;;;;;;;;;;;20.50;99.90;;;;;;5104636;27;19975;-69
2023/08/05 04:37:27;;;;;;;;;;;20.50;99.90;;;;;;5099660;27;19944;-70
2023/08/05 04:39:53;;;;;;;;;;;20.50;99.90;;;;;;5102771;27;20067;-70
2023/08/05 04:42:18;;;;;;;;;;;20.50;99.90;;;;;;5103835;28;19983;-69
2023/08/05 04:44:45;;;;;;;;;;;20.40;99.90;;;;;;5103487;28;20393;-70
2023/08/05 04:47:11;;;;;;;;;;;20.50;99.90;;;;;;5101195;28;19953;-70
2023/08/05 04:49:38;;;;;;;;;;;20.40;99.90;;;;;;5101989;28;19936;-70
2023/08/05 04:52:06;;;;;;;;;;;20.50;99.90;;;;;;5102505;28;19946;-70
2023/08/05 04:54:41;;;;;;;;;;;20.50;99.90;;;;;;5103643;28;19941;-71
2023/08/05 04:57:06;;;;;;;;;;;20.50;99.90;;;;;;5100904;28;19945;-71
2023/08/05 04:59:32;;;;;;;;;;;20.50;99.90;;;;;;5104690;28;20495;-71
2023/08/05 05:01:58;;;;;;;;;;;20.60;99.90;;;;;;5101745;28;20290;-70
2023/08/05 05:04:24;;;;;;;;;;;20.60;99.90;;;;;;5105562;28;20484;-70
2023/08/05 05:06:49;;;;;;;;;;;20.60;99.90;;;;;;5090589;28;20003;-70
2023/08/05 05:09:15;;;;;;;;;;;20.70;99.90;;;;;;5101871;28;19936;-70
2023/08/05 05:11:40;;;;;;;;;;;20.70;99.90;;;;;;5097405;28;19944;-71
2023/08/05 05:14:12;;;;;;;;;;;20.70;99.90;;;;;;5106771;28;19942;-71
2023/08/05 05:16:37;;;;;;;;;;;20.80;99.90;;;;;;5101984;28;19950;-71
2023/08/05 05:19:03;;;;;;;;;;;20.80;99.90;;;;;;5101796;28;20423;-71
2023/08/05 05:21:29;;;;;;;;;;;20.80;99.90;;;;;;5100153;28;19975;-70
2023/08/05 05:23:55;;;;;;;;;;;20.80;99.90;;;;;;5104961;28;22039;-69
2023/08/05 05:26:21;;;;;;;;;;;20.80;99.90;;;;;;5102541;27;20032;-82
2023/08/05 05:28:46;;;;;;;;;;;20.90;99.90;;;;;;5102690;27;19950;-70
2023/08/05 05:31:12;;;;;;;;;;;20.90;99.90;;;;;;5107993;27;20067;-69
2023/08/05 05:33:47;;;;;;;;;;;20.90;99.90;;;;;;5108054;27;19949;-69
2023/08/05 05:36:13;;;;;;;;;;;20.90;99.90;;;;;;5106526;27;19933;-69
2023/08/05 05:38:38;;;;;;;;;;;20.90;99.90;;;;;;5106190;27;19944;-69
2023/08/05 05:41:04;;;;;;;;;;;20.90;99.90;;;;;;5101863;27;20041;-69
2023/08/05 05:43:29;;;;;;;;;;;21.00;99.90;;;;;;5105514;27;19944;-70
2023/08/05 05:45:55;;;;;;;;;;;20.90;99.90;;;;;;5104142;27;20031;-71
2023/08/05 05:48:20;;;;;;;;;;;21.00;99.90;;;;;;5101811;27;19937;-70
2023/08/05 05:50:46;;;;;;;;;;;20.90;99.90;;;;;;5107220;27;20335;-70
2023/08/05 05:53:13;;;;;;;;;;;20.90;99.90;;;;;;5107275;27;19932;-70
2023/08/05 05:55:41;;;;;;;;;;;21.00;99.90;;;;;;5107141;27;19939;-70
2023/08/05 05:58:07;;;;;;;;;;;21.00;99.90;;;;;;5108581;27;19942;-70
2023/08/05 06:00:33;;;;;;;;;;;21.10;99.90;;;;;;5101184;27;20776;-72
2023/08/05 06:03:00;;;;;;;;;;;21.10;99.90;;;;;;5105458;27;20000;-71
2023/08/05 06:05:26;;;;;;;;;;;21.20;99.90;;;;;;5091992;27;19941;-70
2023/08/05 06:07:51;;;;;;;;;;;21.20;99.90;;;;;;5105781;27;19942;-71
2023/08/05 06:10:17;;;;;;;;;;;21.20;99.90;;;;;;5110304;27;19953;-71
2023/08/05 06:12:42;;;;;;;;;;;21.30;99.90;;;;;;5108793;27;20501;-71
2023/08/05 06:15:08;;;;;;;;;;;21.30;99.90;;;;;;5107742;27;19932;-73
2023/08/05 06:17:33;;;;;;;;;;;21.40;99.90;;;;;;5106932;27;19967;-72
2023/08/05 06:19:59;;;;;;;;;;;21.40;99.90;;;;;;5103655;27;20013;-72
2023/08/05 06:22:25;;;;;;;;;;;21.40;99.90;;;;;;5108327;27;19972;-70
2023/08/05 06:24:51;;;;;;;;;;;21.50;99.90;;;;;;5106761;27;19936;-67
2023/08/05 06:27:17;;;;;;;;;;;21.60;99.90;;;;;;5107423;27;19943;-67
2023/08/05 06:29:42;;;;;;;;;;;21.60;99.90;;;;;;5105764;27;19939;-67
2023/08/05 06:32:08;;;;;;;;;;;21.70;99.90;;;;;;5103469;27;20105;-67
2023/08/05 06:34:33;;;;;;;;;;;21.70;99.90;;;;;;5104875;27;20706;-67
2023/08/05 06:36:59;;;;;;;;;;;21.70;99.90;;;;;;5105520;27;19929;-67
2023/08/05 06:39:24;;;;;;;;;;;21.70;99.90;;;;;;5103742;27;20015;-67
2023/08/05 06:41:50;;;;;;;;;;;21.80;99.90;;;;;;5107868;27;19963;-67
2023/08/05 06:44:16;;;;;;;;;;;21.80;99.90;;;;;;5101887;27;20467;-67
2023/08/05 06:46:42;;;;;;;;;;;21.80;99.90;;;;;;5107413;27;19961;-66
2023/08/05 06:49:09;;;;;;;;;;;21.80;99.90;;;;;;5102846;27;20382;-67
2023/08/05 06:51:35;;;;;;;;;;;21.80;99.90;;;;;;5103464;27;20300;-67
2023/08/05 06:54:00;;;;;;;;;;;21.80;99.90;;;;;;5105400;27;19931;-66
2023/08/05 06:56:26;;;;;;;;;;;21.80;99.90;;;;;;5106451;27;19938;-72
2023/08/05 06:58:51;;;;;;;;;;;21.90;99.90;;;;;;5104747;27;20564;-72
2023/08/05 07:01:17;;;;;;;;;;;21.90;99.90;;;;;;5107116;27;19944;-72
2023/08/05 07:03:44;;;;;;;;;;;22.00;99.90;;;;;;5087367;27;19938;-72
2023/08/05 07:06:09;;;;;;;;;;;22.00;99.90;;;;;;5107705;27;19942;-73
2023/08/05 07:08:35;;;;;;;;;;;22.00;99.90;;;;;;5103564;27;19952;-73
2023/08/05 07:11:00;;;;;;;;;;;22.10;99.90;;;;;;5105805;27;19981;-72
2023/08/05 07:13:26;;;;;;;;;;;22.10;99.90;;;;;;5103128;27;19977;-73
2023/08/05 07:16:01;;;;;;;;;;;22.10;99.90;;;;;;5107803;27;19976;-67
2023/08/05 07:18:27;;;;;;;;;;;22.10;99.90;;;;;;5102268;27;19940;-67
2023/08/05 07:20:53;;;;;;;;;;;22.20;99.90;;;;;;5104583;27;19954;-67
2023/08/05 07:23:18;;;;;;;;;;;22.20;99.90;;;;;;5102466;27;19938;-65
2023/08/05 07:25:44;;;;;;;;;;;22.20;99.90;;;;;;5105964;27;19940;-66
2023/08/05 07:28:09;;;;;;;;;;;22.20;99.90;;;;;;5100010;27;19937;-67
2023/08/05 07:30:35;;;;;;;;;;;22.20;99.90;;;;;;5100508;27;20396;-66
2023/08/05 07:33:19;;;;;;;;;;;22.20;99.90;;;;;;5102350;27;19936;-66
2023/08/05 07:35:45;;;;;;;;;;;22.20;99.90;;;;;;5103420;27;19959;-66
2023/08/05 07:38:10;;;;;;;;;;;22.20;99.90;;;;;;5101375;27;20312;-66
2023/08/05 07:40:40;;;;;;;;;;;22.20;99.90;;;;;;5101398;27;19971;-66
2023/08/05 07:43:08;;;;;;;;;;;22.10;99.90;;;;;;5086664;28;19942;-68
2023/08/05 07:45:35;;;;;;;;;;;22.10;99.90;;;;;;5101956;27;20117;-66
2023/08/05 07:48:01;;;;;;;;;;;22.20;99.90;;;;;;5100697;27;19995;-66
2023/08/05 07:50:26;;;;;;;;;;;22.20;99.90;;;;;;5101331;27;20208;-66
2023/08/05 07:52:53;;;;;;;;;;;22.20;99.90;;;;;;5101412;27;20041;-73
2023/08/05 07:55:19;;;;;;;;;;;22.20;99.90;;;;;;5098990;27;20146;-74
2023/08/05 07:57:46;;;;;;;;;;;22.20;99.90;;;;;;5103355;27;19941;-72
2023/08/05 08:00:13;;;;;;;;;;;22.20;99.90;;;;;;5102258;27;20051;-72
2023/08/05 08:02:44;;;;;;;;;;;22.20;99.90;;;;;;5099813;27;19945;-72
2023/08/05 08:05:13;;;;;;;;;;;22.20;99.90;;;;;;5109494;27;20035;-73
2023/08/05 08:07:41;;;;;;;;;;;22.20;99.90;;;;;;5102279;27;19932;-73
2023/08/05 08:10:07;;;;;;;;;;;22.20;99.90;;;;;;5102821;27;19993;-72
2023/08/05 08:12:32;;;;;;;;;;;22.20;99.90;;;;;;5102193;27;19949;-73
2023/08/05 08:14:58;;;;;;;;;;;22.10;99.90;;;;;;5104306;27;19999;-72
2023/08/05 08:17:23;;;;;;;;;;;22.10;99.90;;;;;;5103313;27;19958;-73
2023/08/05 08:19:50;;;;;;;;;;;22.10;99.90;;;;;;5104987;27;20355;-73
2023/08/05 08:22:17;;;;;;;;;;;22.20;99.90;;;;;;5104637;27;19934;-75
2023/08/05 08:24:42;;;;;;;;;;;22.20;99.90;;;;;;5103411;27;19943;-73
2023/08/05 08:27:08;;;;;;;;;;;22.30;99.90;;;;;;5103891;27;19940;-74
2023/08/05 08:29:33;;;;;;;;;;;22.30;99.90;;;;;;5098564;27;19948;-72
2023/08/05 08:31:59;;;;;;;;;;;22.30;99.90;;;;;;5097397;27;19991;-72
2023/08/05 08:34:24;;;;;;;;;;;22.30;99.90;;;;;;5097829;27;19950;-73
2023/08/05 08:36:50;;;;;;;;;;;22.30;99.90;;;;;;5100123;28;19936;-73
2023/08/05 08:39:16;;;;;;;;;;;22.30;99.90;;;;;;5086030;28;20559;-72
2023/08/05 08:41:42;;;;;;;;;;;22.30;99.90;;;;;;5099477;28;20287;-73
2023/08/05 08:44:08;;;;;;;;;;;22.40;99.90;;;;;;5098267;28;20453;-73
2023/08/05 08:46:34;;;;;;;;;;;22.40;99.90;;;;;;5098822;28;19944;-78
2023/08/05 08:49:06;;;;;;;;;;;22.40;99.90;;;;;;5100749;28;20417;-73
2023/08/05 08:51:32;;;;;;;;;;;22.30;99.90;;;;;;5100708;28;20507;-74
2023/08/05 08:53:59;;;;;;;;;;;22.40;99.90;;;;;;5101745;28;19935;-74
2023/08/05 08:56:24;;;;;;;;;;;22.50;99.90;;;;;;5103734;28;20363;-74
2023/08/05 08:58:50;;;;;;;;;;;22.60;99.90;;;;;;5067351;28;19966;-72
2023/08/05 09:01:16;;;;;;;;;;;22.70;99.90;;;;;;5077104;27;19952;-73
2023/08/05 09:03:43;;;;;;;;;;;22.70;99.90;;;;;;5081198;27;19937;-66
2023/08/05 09:06:08;;;;;;;;;;;22.70;99.90;;;;;;5082777;27;20352;-67
2023/08/05 09:08:34;;;;;;;;;;;22.70;99.90;;;;;;5078028;27;19944;-67
2023/08/05 09:11:00;;;;;;;;;;;22.80;99.90;;;;;;5078764;27;19966;-67
2023/08/05 09:13:26;;;;;;;;;;;22.80;99.90;;;;;;5078488;27;19972;-67
2023/08/05 09:15:53;;;;;;;;;;;22.90;99.90;;;;;;5100949;27;20040;-67
2023/08/05 09:18:19;;;;;;;;;;;22.90;99.90;;;;;;5081868;27;19941;-67
2023/08/05 09:20:44;;;;;;;;;;;22.90;99.90;;;;;;5101400;27;19958;-66
2023/08/05 09:23:10;;;;;;;;;;;22.90;99.90;;;;;;5103259;27;19938;-68
2023/08/05 09:25:40;;;;;;;;;;;22.90;99.90;;;;;;5085928;27;20224;-68
2023/08/05 09:28:06;;;;;;;;;;;22.90;99.90;;;;;;5090111;27;19938;-67
2023/08/05 09:30:35;;;;;;;;;;;22.90;99.90;;;;;;5101181;27;20618;-66
2023/08/05 09:33:00;;;;;;;;;;;23.00;99.90;;;;;;5102398;27;20301;-66
2023/08/05 09:35:26;;;;;;;;;;;23.00;99.90;;;;;;5099766;27;20417;-67
2023/08/05 09:37:53;;;;;;;;;;;23.00;99.90;;;;;;5082968;27;20348;-66
2023/08/05 09:40:19;;;;;;;;;;;23.00;99.90;;;;;;5099597;27;19960;-67
2023/08/05 09:42:48;;;;;;;;;;;23.00;99.90;;;;;;5088734;27;19940;-73
2023/08/05 09:45:18;;;;;;;;;;;23.00;99.90;;;;;;5084207;27;19977;-74
2023/08/05 09:47:46;;;;;;;;;;;23.10;99.90;;;;;;5105414;27;19946;-74
2023/08/05 09:50:13;;;;;;;;;;;23.20;99.90;;;;;;5109549;27;19939;-75
2023/08/05 09:52:39;;;;;;;;;;;23.30;99.90;;;;;;5107002;27;20025;-74
2023/08/05 09:55:09;;;;;;;;;;;23.30;99.90;;;;;;5105461;27;19943;-74
2023/08/05 09:57:34;;;;;;;;;;;23.30;99.90;;;;;;5104012;27;19957;-74
2023/08/05 10:00:00;;;;;;;;;;;23.30;99.90;;;;;;5108846;27;19959;-74
2023/08/05 10:02:26;;;;;;;;;;;23.30;99.90;;;;;;5110463;27;19928;-74
2023/08/05 10:04:53;;;;;;;;;;;23.30;99.90;;;;;;5109934;27;20068;-73
2023/08/05 10:07:22;;;;;;;;;;;23.30;99.90;;;;;;5106269;27;20025;-74
2023/08/05 10:09:48;;;;;;;;;;;23.30;99.90;;;;;;5106237;27;20084;-74
2023/08/05 10:12:16;;;;;;;;;;;23.20;99.90;;;;;;5111201;27;20379;-75
2023/08/05 10:14:42;;;;;;;;;;;23.20;99.90;;;;;;5104363;27;19942;-74
2023/08/05 10:17:08;;;;;;;;;;;23.30;99.90;;;;;;5073180;27;20310;-74
2023/08/05 10:19:33;;;;;;;;;;;23.30;99.90;;;;;;5079820;27;19960;-74
2023/08/05 10:22:11;;;;;;;;;;;23.30;99.90;;;;;;5110304;27;19939;-74
2023/08/05 10:24:52;;;;;;;;;;;23.30;99.90;;;;;;5109851;27;19982;-74
2023/08/05 10:27:31;;;;;;;;;;;23.30;99.90;;;;;;5103781;27;19994;-74
2023/08/05 10:29:57;;;;;;;;;;;23.40;99.90;;;;;;5106831;27;19937;-74
2023/08/05 10:32:29;;;;;;;;;;;23.40;99.90;;;;;;5107377;27;20003;-74
2023/08/05 10:35:13;;;;;;;;;;;23.40;99.90;;;;;;5108012;27;19952;-74
2023/08/05 10:37:48;;;;;;;;;;;23.30;99.90;;;;;;5106172;27;20012;-75
2023/08/05 10:40:33;;;;;;;;;;;23.30;99.90;;;;;;5089662;27;19969;-75
2023/08/05 10:42:59;;;;;;;;;;;23.40;99.90;;;;;;5108013;27;20326;-74
2023/08/05 10:45:25;;;;;;;;;;;23.40;99.90;;;;;;5108071;27;19950;-75
2023/08/05 10:47:50;;;;;;;;;;;23.50;99.90;;;;;;5095040;27;19940;-75
2023/08/05 10:50:16;;;;;;;;;;;23.60;99.90;;;;;;5110956;27;19938;-75
2023/08/05 10:52:41;;;;;;;;;;;23.80;99.90;;;;;;5105824;27;23902;-75
2023/08/05 10:55:11;;;;;;;;;;;23.90;99.90;;;;;;5111522;27;20005;-75
2023/08/05 10:57:40;;;;;;;;;;;24.00;99.90;;;;;;5107305;27;19954;-75
2023/08/05 11:00:08;;;;;;;;;;;24.10;99.90;;;;;;5109747;27;20012;-75
2023/08/05 11:02:34;;;;;;;;;;;24.20;99.90;;;;;;5105753;27;20392;-75
2023/08/05 11:05:06;;;;;;;;;;;24.30;99.90;;;;;;5110297;27;19989;-70
2023/08/05 11:07:42;;;;;;;;;;;24.30;99.90;;;;;;5107493;27;20593;-70
2023/08/05 11:10:09;;;;;;;;;;;24.30;99.90;;;;;;5108597;27;19943;-70
2023/08/05 11:12:36;;;;;;;;;;;24.40;99.90;;;;;;5111591;27;19937;-70
2023/08/05 11:15:02;;;;;;;;;;;24.40;99.90;;;;;;5104770;27;19941;-70
2023/08/05 11:17:28;;;;;;;;;;;24.50;99.90;;;;;;5110739;27;19985;-70
2023/08/05 11:19:54;;;;;;;;;;;24.60;99.90;;;;;;5104825;27;19975;-70
2023/08/05 11:22:22;;;;;;;;;;;24.70;99.90;;;;;;5109723;27;19942;-74
2023/08/05 11:24:53;;;;;;;;;;;24.70;99.90;;;;;;5103602;27;20098;-70
2023/08/05 11:27:19;;;;;;;;;;;24.70;99.90;;;;;;5111461;27;19963;-70
2023/08/05 11:29:44;;;;;;;;;;;24.70;99.90;;;;;;5108506;27;19928;-70
2023/08/05 11:32:10;;;;;;;;;;;24.80;99.90;;;;;;5104550;27;19951;-70
2023/08/05 11:34:35;;;;;;;;;;;24.80;99.90;;;;;;5104178;27;19956;-70
2023/08/05 11:37:01;;;;;;;;;;;24.80;99.90;;;;;;5105518;27;20448;-71
2023/08/05 11:39:26;;;;;;;;;;;24.80;99.90;;;;;;5107099;27;19964;-71
2023/08/05 11:41:52;;;;;;;;;;;24.80;99.90;;;;;;5103538;27;19960;-71
2023/08/05 11:44:18;;;;;;;;;;;24.80;99.90;;;;;;5102874;27;19936;-70
2023/08/05 11:46:44;;;;;;;;;;;24.90;99.90;;;;;;5101673;27;20615;-70
2023/08/05 11:49:10;;;;;;;;;;;24.90;99.90;;;;;;5107415;27;19952;-71
2023/08/05 11:51:46;;;;;;;;;;;25.00;99.90;;;;;;5099337;27;20250;-71
2023/08/05 11:54:11;;;;;;;;;;;25.10;99.90;;;;;;5104717;27;19945;-71
2023/08/05 11:56:37;;;;;;;;;;;25.10;99.90;;;;;;5107265;27;20008;-71
2023/08/05 11:59:02;;;;;;;;;;;25.20;99.90;;;;;;5104182;27;19944;-70
2023/08/05 12:01:28;;;;;;;;;;;25.30;99.90;;;;;;5105597;27;20534;-77
2023/08/05 12:03:57;;;;;;;;;;;25.30;99.90;;;;;;5104166;27;19940;-82
2023/08/05 12:06:26;;;;;;;;;;;25.30;99.90;;;;;;5104260;27;19933;-87
2023/08/05 12:08:58;;;;;;;;;;;25.30;99.90;;;;;;5105004;27;20347;-86
2023/08/05 12:11:24;;;;;;;;;;;25.30;99.90;;;;;;5104453;27;20037;-85
2023/08/05 12:13:50;;;;;;;;;;;25.30;99.90;;;;;;5104458;27;20076;-88
2023/08/05 12:16:16;;;;;;;;;;;25.30;99.90;;;;;;5106077;27;20019;-83
2023/08/05 12:18:42;;;;;;;;;;;25.30;99.90;;;;;;5103539;27;19938;-87
2023/08/05 12:21:07;;;;;;;;;;;25.30;99.90;;;;;;5105328;27;20059;-85
2023/08/05 12:23:39;;;;;;;;;;;25.40;99.90;;;;;;5105808;27;19934;-81
2023/08/05 12:26:04;;;;;;;;;;;25.60;99.90;;;;;;5105354;27;21289;-80
2023/08/05 12:28:30;;;;;;;;;;;25.60;99.90;;;;;;5103365;27;20023;-76
2023/08/05 12:30:55;;;;;;;;;;;25.70;99.90;;;;;;5102349;27;21395;-78
2023/08/05 12:33:21;;;;;;;;;;;25.80;99.90;;;;;;5100345;28;19940;-77
2023/08/05 12:35:46;;;;;;;;;;;25.90;99.90;;;;;;5101202;27;20201;-76
2023/08/05 12:38:12;;;;;;;;;;;25.90;99.90;;;;;;5101782;27;20589;-79
2023/08/05 12:40:37;;;;;;;;;;;25.90;99.90;;;;;;5073198;28;19970;-80
2023/08/05 12:43:03;;;;;;;;;;;25.90;99.90;;;;;;5104516;28;20064;-77
2023/08/05 12:45:28;;;;;;;;;;;25.80;99.90;;;;;;5103356;28;20020;-79
2023/08/05 12:47:54;;;;;;;;;;;25.90;99.90;;;;;;5102726;28;19948;-80
2023/08/05 12:50:19;;;;;;;;;;;25.90;99.90;;;;;;5091983;28;20026;-76
2023/08/05 12:52:45;;;;;;;;;;;25.90;99.90;;;;;;5106426;28;19949;-78
2023/08/05 12:55:10;;;;;;;;;;;25.90;99.90;;;;;;5087487;28;19943;-75
2023/08/05 12:57:36;;;;;;;;;;;26.00;99.90;;;;;;5102892;28;20152;-81
2023/08/05 13:00:01;;;;;;;;;;;26.00;99.90;;;;;;5100316;28;20345;-77
2023/08/05 13:02:27;;;;;;;;;;;26.00;99.90;;;;;;5105426;28;19945;-75
2023/08/05 13:04:53;;;;;;;;;;;26.00;99.90;;;;;;5102249;28;20408;-77
2023/08/05 13:07:19;;;;;;;;;;;26.00;99.90;;;;;;5079358;28;19990;-80
2023/08/05 13:09:44;;;;;;;;;;;26.00;99.90;;;;;;5107933;28;19943;-78
2023/08/05 13:12:10;;;;;;;;;;;26.00;99.90;;;;;;5102979;28;19963;-83
2023/08/05 13:14:35;;;;;;;;;;;26.00;99.90;;;;;;5078871;28;20162;-68
2023/08/05 13:17:01;;;;;;;;;;;26.00;99.90;;;;;;5098043;28;19934;-69
2023/08/05 13:19:26;;;;;;;;;;;26.00;99.90;;;;;;5097139;28;20724;-69
2023/08/05 13:21:52;;;;;;;;;;;26.10;99.90;;;;;;5105605;28;19936;-68
2023/08/05 13:24:17;;;;;;;;;;;26.00;99.90;;;;;;5102777;28;19938;-67
2023/08/05 13:26:43;;;;;;;;;;;26.10;99.90;;;;;;5100814;28;19944;-69
2023/08/05 13:29:08;;;;;;;;;;;26.10;99.90;;;;;;5102085;28;20050;-66
2023/08/05 13:31:34;;;;;;;;;;;26.40;99.90;;;;;;5098581;28;19945;-73
2023/08/05 13:34:00;;;;;;;;;;;26.50;99.90;;;;;;5103583;28;20002;-75
2023/08/05 13:36:26;;;;;;;;;;;26.60;99.90;;;;;;5099071;28;20178;-75
2023/08/05 13:38:51;;;;;;;;;;;26.80;99.90;;;;;;5100547;28;20416;-78
2023/08/05 13:41:17;;;;;;;;;;;26.80;99.90;;;;;;5105550;28;20448;-74
2023/08/05 13:43:42;;;;;;;;;;;26.80;99.90;;;;;;5111649;28;19983;-77
2023/08/05 13:46:08;;;;;;;;;;;26.80;99.90;;;;;;5108553;27;19942;-73
2023/08/05 13:48:36;;;;;;;;;;;26.90;99.90;;;;;;5111695;27;19935;-78
2023/08/05 13:51:02;;;;;;;;;;;26.90;99.90;;;;;;5110402;27;20351;-74
2023/08/05 13:53:27;;;;;;;;;;;26.90;99.90;;;;;;5106171;27;19942;-74
2023/08/05 13:55:54;;;;;;;;;;;26.80;99.90;;;;;;5110358;27;19937;-76
2023/08/05 13:58:19;;;;;;;;;;;26.90;99.90;;;;;;5113454;27;19933;-76
2023/08/05 14:00:45;;;;;;;;;;;27.00;99.90;;;;;;5094282;27;20481;-75
2023/08/05 14:03:11;;;;;;;;;;;27.10;99.90;;;;;;5103385;27;19993;-75
2023/08/05 14:05:36;;;;;;;;;;;27.00;99.90;;;;;;5110515;27;20404;-76
2023/08/05 14:08:02;;;;;;;;;;;27.00;99.90;;;;;;5108330;27;20302;-68
2023/08/05 14:10:28;;;;;;;;;;;26.90;99.90;;;;;;5089686;27;20041;-77
2023/08/05 14:12:54;;;;;;;;;;;26.90;99.90;;;;;;5109298;27;20031;-78